sensor_id;sensor_type;location;lat;lon;timestamp;P1;durP1;ratioP1;P2;durP2;ratioP2
17091;SDS011;8661;45.700;4.880;2023-01-16T00:00:06;7.30;;;4.73;;
17091;SDS011;8661;45.700;4.880;2023-01-16T00:02:35;8.13;;;4.77;;
17091;SDS011;8661;45.700;4.880;2023-01-16T00:05:02;5.97;;;4.40;;
17091;SDS011;8661;45.700;4.880;2023-01-16T00:07:29;7.33;;;4.53;;
17091;SDS011;8661;45.700;4.880;2023-01-16T00:09:56;8.00;;;4.70;;
17091;SDS011;8661;45.700;4.880;2023-01-16T00:12:23;6.70;;;4.30;;
17091;SDS011;8661;45.700;4.880;2023-01-16T00:14:50;4.53;;;3.90;;
17091;SDS011;8661;45.700;4.880;2023-01-16T00:17:18;5.60;;;4.17;;
17091;SDS011;8661;45.700;4.880;2023-01-16T00:19:45;8.57;;;4.40;;
17091;SDS011;8661;45.700;4.880;2023-01-16T00:22:12;5.73;;;3.77;;
17091;SDS011;8661;45.700;4.880;2023-01-16T00:24:39;5.60;;;4.03;;
17091;SDS011;8661;45.700;4.880;2023-01-16T00:27:06;6.00;;;4.20;;
17091;SDS011;8661;45.700;4.880;2023-01-16T00:29:33;6.03;;;4.10;;
17091;SDS011;8661;45.700;4.880;2023-01-16T00:32:00;7.20;;;4.40;;
17091;SDS011;8661;45.700;4.880;2023-01-16T00:34:28;8.03;;;4.70;;
17091;SDS011;8661;45.700;4.880;2023-01-16T00:36:55;5.13;;;3.73;;
17091;SDS011;8661;45.700;4.880;2023-01-16T00:39:22;7.07;;;4.13;;
17091;SDS011;8661;45.700;4.880;2023-01-16T00:41:49;6.87;;;4.30;;
17091;SDS011;8661;45.700;4.880;2023-01-16T00:44:16;5.83;;;4.17;;
17091;SDS011;8661;45.700;4.880;2023-01-16T00:46:44;5.80;;;3.93;;
17091;SDS011;8661;45.700;4.880;2023-01-16T00:49:11;5.93;;;4.30;;
17091;SDS011;8661;45.700;4.880;2023-01-16T00:51:39;8.03;;;4.10;;
17091;SDS011;8661;45.700;4.880;2023-01-16T00:54:06;8.77;;;4.23;;
17091;SDS011;8661;45.700;4.880;2023-01-16T00:56:33;6.37;;;3.90;;
17091;SDS011;8661;45.700;4.880;2023-01-16T00:59:00;5.57;;;3.50;;
17091;SDS011;8661;45.700;4.880;2023-01-16T01:01:27;6.10;;;4.00;;
17091;SDS011;8661;45.700;4.880;2023-01-16T01:03:54;6.20;;;3.63;;
17091;SDS011;8661;45.700;4.880;2023-01-16T01:06:21;8.00;;;3.90;;
17091;SDS011;8661;45.700;4.880;2023-01-16T01:08:49;5.57;;;3.00;;
17091;SDS011;8661;45.700;4.880;2023-01-16T01:11:16;4.80;;;3.60;;
17091;SDS011;8661;45.700;4.880;2023-01-16T01:13:44;5.10;;;3.50;;
17091;SDS011;8661;45.700;4.880;2023-01-16T01:16:11;6.53;;;3.33;;
17091;SDS011;8661;45.700;4.880;2023-01-16T01:18:38;7.47;;;3.60;;
17091;SDS011;8661;45.700;4.880;2023-01-16T01:21:05;5.00;;;3.27;;
17091;SDS011;8661;45.700;4.880;2023-01-16T01:23:32;5.13;;;3.17;;
17091;SDS011;8661;45.700;4.880;2023-01-16T01:26:05;11.40;;;4.10;;
17091;SDS011;8661;45.700;4.880;2023-01-16T01:28:33;9.17;;;3.70;;
17091;SDS011;8661;45.700;4.880;2023-01-16T01:31:01;6.50;;;3.60;;
17091;SDS011;8661;45.700;4.880;2023-01-16T01:33:29;6.57;;;3.77;;
17091;SDS011;8661;45.700;4.880;2023-01-16T01:35:56;7.43;;;3.43;;
17091;SDS011;8661;45.700;4.880;2023-01-16T01:38:23;7.53;;;3.73;;
17091;SDS011;8661;45.700;4.880;2023-01-16T01:40:50;7.37;;;3.50;;
17091;SDS011;8661;45.700;4.880;2023-01-16T01:43:18;5.97;;;3.70;;
17091;SDS011;8661;45.700;4.880;2023-01-16T01:45:46;7.00;;;4.03;;
17091;SDS011;8661;45.700;4.880;2023-01-16T01:48:19;7.00;;;3.17;;
17091;SDS011;8661;45.700;4.880;2023-01-16T01:50:50;8.90;;;4.50;;
17091;SDS011;8661;45.700;4.880;2023-01-16T01:53:22;6.90;;;4.63;;
17091;SDS011;8661;45.700;4.880;2023-01-16T01:55:52;9.87;;;4.77;;
17091;SDS011;8661;45.700;4.880;2023-01-16T01:58:23;8.40;;;4.87;;
17091;SDS011;8661;45.700;4.880;2023-01-16T02:00:53;7.73;;;4.90;;
17091;SDS011;8661;45.700;4.880;2023-01-16T02:03:23;6.07;;;4.40;;
17091;SDS011;8661;45.700;4.880;2023-01-16T02:05:54;8.17;;;4.70;;
17091;SDS011;8661;45.700;4.880;2023-01-16T02:08:25;8.20;;;4.63;;
17091;SDS011;8661;45.700;4.880;2023-01-16T02:10:55;6.17;;;4.53;;
17091;SDS011;8661;45.700;4.880;2023-01-16T02:13:29;9.37;;;4.50;;
17091;SDS011;8661;45.700;4.880;2023-01-16T02:15:56;9.70;;;5.10;;
17091;SDS011;8661;45.700;4.880;2023-01-16T02:18:41;8.70;;;5.00;;
17091;SDS011;8661;45.700;4.880;2023-01-16T02:21:35;7.03;;;4.77;;
17091;SDS011;8661;45.700;4.880;2023-01-16T02:30:22;5.63;;;4.60;;
17091;SDS011;8661;45.700;4.880;2023-01-16T02:33:05;9.30;;;5.17;;
17091;SDS011;8661;45.700;4.880;2023-01-16T02:35:44;8.13;;;5.00;;
17091;SDS011;8661;45.700;4.880;2023-01-16T02:38:26;6.57;;;4.10;;
17091;SDS011;8661;45.700;4.880;2023-01-16T02:41:03;6.93;;;4.17;;
17091;SDS011;8661;45.700;4.880;2023-01-16T02:43:38;4.73;;;3.43;;
17091;SDS011;8661;45.700;4.880;2023-01-16T02:46:15;6.87;;;3.83;;
17091;SDS011;8661;45.700;4.880;2023-01-16T02:48:53;4.73;;;3.83;;
17091;SDS011;8661;45.700;4.880;2023-01-16T02:51:28;5.30;;;3.97;;
17091;SDS011;8661;45.700;4.880;2023-01-16T02:54:02;9.23;;;4.23;;
17091;SDS011;8661;45.700;4.880;2023-01-16T02:56:36;8.60;;;4.30;;
17091;SDS011;8661;45.700;4.880;2023-01-16T02:59:07;6.10;;;3.10;;
17091;SDS011;8661;45.700;4.880;2023-01-16T03:01:36;5.53;;;3.13;;
17091;SDS011;8661;45.700;4.880;2023-01-16T03:07:11;6.43;;;3.30;;
17091;SDS011;8661;45.700;4.880;2023-01-16T03:09:56;7.57;;;2.87;;
17091;SDS011;8661;45.700;4.880;2023-01-16T03:12:36;2.57;;;2.20;;
17091;SDS011;8661;45.700;4.880;2023-01-16T03:15:13;4.57;;;3.10;;
17091;SDS011;8661;45.700;4.880;2023-01-16T03:17:51;3.53;;;2.63;;
17091;SDS011;8661;45.700;4.880;2023-01-16T03:20:32;4.83;;;2.70;;
17091;SDS011;8661;45.700;4.880;2023-01-16T03:23:12;5.37;;;2.77;;
17091;SDS011;8661;45.700;4.880;2023-01-16T03:25:48;4.20;;;3.10;;
17091;SDS011;8661;45.700;4.880;2023-01-16T03:28:20;4.63;;;2.90;;
17091;SDS011;8661;45.700;4.880;2023-01-16T03:30:54;3.37;;;2.53;;
17091;SDS011;8661;45.700;4.880;2023-01-16T03:33:31;3.40;;;2.60;;
17091;SDS011;8661;45.700;4.880;2023-01-16T03:36:10;5.50;;;2.83;;
17091;SDS011;8661;45.700;4.880;2023-01-16T03:38:41;3.17;;;2.60;;
17091;SDS011;8661;45.700;4.880;2023-01-16T03:41:12;5.80;;;3.40;;
17091;SDS011;8661;45.700;4.880;2023-01-16T03:43:42;3.50;;;2.13;;
17091;SDS011;8661;45.700;4.880;2023-01-16T03:46:15;3.77;;;2.53;;
17091;SDS011;8661;45.700;4.880;2023-01-16T03:48:44;3.87;;;2.60;;
17091;SDS011;8661;45.700;4.880;2023-01-16T03:51:17;3.90;;;2.63;;
17091;SDS011;8661;45.700;4.880;2023-01-16T03:53:52;3.77;;;2.17;;
17091;SDS011;8661;45.700;4.880;2023-01-16T03:56:27;5.07;;;2.33;;
17091;SDS011;8661;45.700;4.880;2023-01-16T03:58:57;6.00;;;2.50;;
17091;SDS011;8661;45.700;4.880;2023-01-16T04:01:26;5.90;;;2.60;;
17091;SDS011;8661;45.700;4.880;2023-01-16T04:04:02;2.90;;;2.10;;
17091;SDS011;8661;45.700;4.880;2023-01-16T04:06:34;4.03;;;1.80;;
17091;SDS011;8661;45.700;4.880;2023-01-16T04:09:08;4.77;;;2.20;;
17091;SDS011;8661;45.700;4.880;2023-01-16T04:11:39;3.50;;;2.10;;
17091;SDS011;8661;45.700;4.880;2023-01-16T04:14:07;3.83;;;2.00;;
17091;SDS011;8661;45.700;4.880;2023-01-16T04:16:37;3.03;;;1.97;;
17091;SDS011;8661;45.700;4.880;2023-01-16T04:19:05;2.73;;;1.70;;
17091;SDS011;8661;45.700;4.880;2023-01-16T04:21:35;4.13;;;2.30;;
17091;SDS011;8661;45.700;4.880;2023-01-16T04:24:02;5.83;;;2.30;;
17091;SDS011;8661;45.700;4.880;2023-01-16T04:26:30;4.20;;;2.23;;
17091;SDS011;8661;45.700;4.880;2023-01-16T04:28:57;5.43;;;2.43;;
17091;SDS011;8661;45.700;4.880;2023-01-16T04:31:24;5.57;;;2.77;;
17091;SDS011;8661;45.700;4.880;2023-01-16T04:33:52;5.23;;;2.50;;
17091;SDS011;8661;45.700;4.880;2023-01-16T04:36:19;1.57;;;1.10;;
17091;SDS011;8661;45.700;4.880;2023-01-16T04:38:47;2.10;;;1.27;;
17091;SDS011;8661;45.700;4.880;2023-01-16T04:41:14;2.43;;;1.33;;
17091;SDS011;8661;45.700;4.880;2023-01-16T04:44:00;3.10;;;1.87;;
17091;SDS011;8661;45.700;4.880;2023-01-16T04:46:27;3.13;;;1.80;;
17091;SDS011;8661;45.700;4.880;2023-01-16T04:48:54;6.70;;;1.80;;
17091;SDS011;8661;45.700;4.880;2023-01-16T04:51:22;3.70;;;2.07;;
17091;SDS011;8661;45.700;4.880;2023-01-16T04:53:50;2.37;;;1.63;;
17091;SDS011;8661;45.700;4.880;2023-01-16T04:56:17;2.13;;;1.73;;
17091;SDS011;8661;45.700;4.880;2023-01-16T04:58:44;2.80;;;1.63;;
17091;SDS011;8661;45.700;4.880;2023-01-16T05:01:11;3.53;;;1.57;;
17091;SDS011;8661;45.700;4.880;2023-01-16T05:03:38;4.13;;;1.87;;
17091;SDS011;8661;45.700;4.880;2023-01-16T05:06:05;4.33;;;2.10;;
17091;SDS011;8661;45.700;4.880;2023-01-16T05:08:32;3.00;;;1.63;;
17091;SDS011;8661;45.700;4.880;2023-01-16T05:11:00;4.30;;;1.90;;
17091;SDS011;8661;45.700;4.880;2023-01-16T05:13:27;4.43;;;2.63;;
17091;SDS011;8661;45.700;4.880;2023-01-16T05:15:54;2.93;;;1.70;;
17091;SDS011;8661;45.700;4.880;2023-01-16T05:18:22;3.50;;;1.80;;
17091;SDS011;8661;45.700;4.880;2023-01-16T05:20:49;3.50;;;1.77;;
17091;SDS011;8661;45.700;4.880;2023-01-16T05:23:16;2.87;;;1.70;;
17091;SDS011;8661;45.700;4.880;2023-01-16T05:25:43;2.53;;;1.63;;
17091;SDS011;8661;45.700;4.880;2023-01-16T05:28:11;2.90;;;1.53;;
17091;SDS011;8661;45.700;4.880;2023-01-16T05:30:38;4.60;;;1.67;;
17091;SDS011;8661;45.700;4.880;2023-01-16T05:33:05;1.70;;;1.27;;
17091;SDS011;8661;45.700;4.880;2023-01-16T05:35:32;2.07;;;1.23;;
17091;SDS011;8661;45.700;4.880;2023-01-16T05:37:59;2.07;;;1.37;;
17091;SDS011;8661;45.700;4.880;2023-01-16T05:40:26;1.47;;;1.03;;
17091;SDS011;8661;45.700;4.880;2023-01-16T05:42:53;1.10;;;0.87;;
17091;SDS011;8661;45.700;4.880;2023-01-16T05:45:21;2.77;;;0.90;;
17091;SDS011;8661;45.700;4.880;2023-01-16T05:47:48;2.20;;;1.77;;
17091;SDS011;8661;45.700;4.880;2023-01-16T05:50:15;2.03;;;1.10;;
17091;SDS011;8661;45.700;4.880;2023-01-16T05:52:42;3.00;;;1.20;;
17091;SDS011;8661;45.700;4.880;2023-01-16T05:55:09;4.43;;;1.50;;
17091;SDS011;8661;45.700;4.880;2023-01-16T05:57:36;2.53;;;1.07;;
17091;SDS011;8661;45.700;4.880;2023-01-16T06:00:03;2.77;;;1.20;;
17091;SDS011;8661;45.700;4.880;2023-01-16T06:02:32;2.33;;;1.57;;
17091;SDS011;8661;45.700;4.880;2023-01-16T06:04:59;4.10;;;1.20;;
17091;SDS011;8661;45.700;4.880;2023-01-16T06:07:26;5.23;;;1.27;;
17091;SDS011;8661;45.700;4.880;2023-01-16T06:09:53;6.13;;;1.70;;
17091;SDS011;8661;45.700;4.880;2023-01-16T06:12:20;1.53;;;1.00;;
17091;SDS011;8661;45.700;4.880;2023-01-16T06:14:47;1.87;;;1.13;;
17091;SDS011;8661;45.700;4.880;2023-01-16T06:17:14;0.93;;;0.80;;
17091;SDS011;8661;45.700;4.880;2023-01-16T06:19:43;3.00;;;1.30;;
17091;SDS011;8661;45.700;4.880;2023-01-16T06:22:11;1.03;;;0.80;;
17091;SDS011;8661;45.700;4.880;2023-01-16T06:24:38;2.00;;;0.80;;
17091;SDS011;8661;45.700;4.880;2023-01-16T06:27:06;2.53;;;1.30;;
17091;SDS011;8661;45.700;4.880;2023-01-16T06:29:33;5.53;;;1.70;;
17091;SDS011;8661;45.700;4.880;2023-01-16T06:32:04;2.60;;;1.27;;
17091;SDS011;8661;45.700;4.880;2023-01-16T06:34:31;3.43;;;1.03;;
17091;SDS011;8661;45.700;4.880;2023-01-16T06:37:00;4.93;;;1.10;;
17091;SDS011;8661;45.700;4.880;2023-01-16T06:39:26;2.50;;;1.17;;
17091;SDS011;8661;45.700;4.880;2023-01-16T06:41:53;2.20;;;1.13;;
17091;SDS011;8661;45.700;4.880;2023-01-16T06:44:20;3.00;;;0.90;;
17091;SDS011;8661;45.700;4.880;2023-01-16T06:46:47;1.20;;;0.57;;
17091;SDS011;8661;45.700;4.880;2023-01-16T06:49:14;2.57;;;0.90;;
17091;SDS011;8661;45.700;4.880;2023-01-16T06:51:41;2.83;;;1.07;;
17091;SDS011;8661;45.700;4.880;2023-01-16T06:54:10;2.53;;;1.13;;
17091;SDS011;8661;45.700;4.880;2023-01-16T06:56:37;1.37;;;0.80;;
17091;SDS011;8661;45.700;4.880;2023-01-16T06:59:06;1.87;;;0.90;;
17091;SDS011;8661;45.700;4.880;2023-01-16T07:01:33;1.97;;;0.83;;
17091;SDS011;8661;45.700;4.880;2023-01-16T07:04:00;2.97;;;1.10;;
17091;SDS011;8661;45.700;4.880;2023-01-16T07:06:27;1.13;;;0.93;;
17091;SDS011;8661;45.700;4.880;2023-01-16T07:08:54;1.43;;;0.90;;
17091;SDS011;8661;45.700;4.880;2023-01-16T07:11:22;1.13;;;0.80;;
17091;SDS011;8661;45.700;4.880;2023-01-16T07:13:49;4.77;;;1.00;;
17091;SDS011;8661;45.700;4.880;2023-01-16T07:16:38;2.50;;;0.73;;
17091;SDS011;8661;45.700;4.880;2023-01-16T07:19:23;2.03;;;0.97;;
17091;SDS011;8661;45.700;4.880;2023-01-16T07:22:07;3.30;;;1.40;;
17091;SDS011;8661;45.700;4.880;2023-01-16T07:24:53;1.53;;;0.90;;
17091;SDS011;8661;45.700;4.880;2023-01-16T07:27:22;2.60;;;0.93;;
17091;SDS011;8661;45.700;4.880;2023-01-16T07:29:49;1.40;;;0.80;;
17091;SDS011;8661;45.700;4.880;2023-01-16T07:32:17;3.50;;;1.13;;
17091;SDS011;8661;45.700;4.880;2023-01-16T07:34:44;1.57;;;0.83;;
17091;SDS011;8661;45.700;4.880;2023-01-16T07:37:11;3.17;;;1.00;;
17091;SDS011;8661;45.700;4.880;2023-01-16T07:39:38;2.87;;;1.13;;
17091;SDS011;8661;45.700;4.880;2023-01-16T07:42:05;1.10;;;0.97;;
17091;SDS011;8661;45.700;4.880;2023-01-16T07:44:34;2.10;;;1.23;;
17091;SDS011;8661;45.700;4.880;2023-01-16T07:47:01;1.23;;;0.90;;
17091;SDS011;8661;45.700;4.880;2023-01-16T07:49:28;1.43;;;0.90;;
17091;SDS011;8661;45.700;4.880;2023-01-16T07:51:55;2.40;;;1.30;;
17091;SDS011;8661;45.700;4.880;2023-01-16T07:54:22;7.93;;;1.40;;
17091;SDS011;8661;45.700;4.880;2023-01-16T07:56:49;2.60;;;1.27;;
17091;SDS011;8661;45.700;4.880;2023-01-16T07:59:16;3.03;;;1.53;;
17091;SDS011;8661;45.700;4.880;2023-01-16T08:01:44;2.40;;;1.40;;
17091;SDS011;8661;45.700;4.880;2023-01-16T08:04:12;2.37;;;1.17;;
17091;SDS011;8661;45.700;4.880;2023-01-16T08:06:39;2.67;;;1.30;;
17091;SDS011;8661;45.700;4.880;2023-01-16T08:09:09;1.77;;;1.30;;
17091;SDS011;8661;45.700;4.880;2023-01-16T08:11:37;3.70;;;1.10;;
17091;SDS011;8661;45.700;4.880;2023-01-16T08:14:05;1.90;;;1.23;;
17091;SDS011;8661;45.700;4.880;2023-01-16T08:16:33;1.50;;;1.00;;
17091;SDS011;8661;45.700;4.880;2023-01-16T08:19:01;3.00;;;1.23;;
17091;SDS011;8661;45.700;4.880;2023-01-16T08:21:29;1.30;;;1.00;;
17091;SDS011;8661;45.700;4.880;2023-01-16T08:23:55;2.53;;;1.20;;
17091;SDS011;8661;45.700;4.880;2023-01-16T08:26:22;2.10;;;1.00;;
17091;SDS011;8661;45.700;4.880;2023-01-16T08:28:50;2.10;;;1.30;;
17091;SDS011;8661;45.700;4.880;2023-01-16T08:31:17;3.67;;;1.17;;
17091;SDS011;8661;45.700;4.880;2023-01-16T08:33:44;2.13;;;1.03;;
17091;SDS011;8661;45.700;4.880;2023-01-16T08:36:13;3.90;;;1.10;;
17091;SDS011;8661;45.700;4.880;2023-01-16T08:38:41;3.00;;;1.30;;
17091;SDS011;8661;45.700;4.880;2023-01-16T08:41:09;3.03;;;1.20;;
17091;SDS011;8661;45.700;4.880;2023-01-16T08:43:56;2.47;;;1.20;;
17091;SDS011;8661;45.700;4.880;2023-01-16T08:46:41;1.47;;;1.17;;
17091;SDS011;8661;45.700;4.880;2023-01-16T08:49:26;2.10;;;1.27;;
17091;SDS011;8661;45.700;4.880;2023-01-16T08:52:14;1.30;;;1.10;;
17091;SDS011;8661;45.700;4.880;2023-01-16T08:54:41;4.20;;;1.27;;
17091;SDS011;8661;45.700;4.880;2023-01-16T08:57:10;2.47;;;1.00;;
17091;SDS011;8661;45.700;4.880;2023-01-16T08:59:37;2.57;;;1.00;;
17091;SDS011;8661;45.700;4.880;2023-01-16T09:02:04;4.60;;;1.33;;
17091;SDS011;8661;45.700;4.880;2023-01-16T09:04:34;2.30;;;1.07;;
17091;SDS011;8661;45.700;4.880;2023-01-16T09:07:01;1.97;;;0.90;;
17091;SDS011;8661;45.700;4.880;2023-01-16T09:09:30;4.53;;;1.23;;
17091;SDS011;8661;45.700;4.880;2023-01-16T09:11:57;1.43;;;1.00;;
17091;SDS011;8661;45.700;4.880;2023-01-16T09:14:41;1.97;;;0.90;;
17091;SDS011;8661;45.700;4.880;2023-01-16T09:17:10;1.53;;;0.90;;
17091;SDS011;8661;45.700;4.880;2023-01-16T09:19:37;2.10;;;0.93;;
17091;SDS011;8661;45.700;4.880;2023-01-16T09:22:04;1.40;;;1.07;;
17091;SDS011;8661;45.700;4.880;2023-01-16T09:24:33;3.87;;;1.20;;
17091;SDS011;8661;45.700;4.880;2023-01-16T09:27:00;1.67;;;1.07;;
17091;SDS011;8661;45.700;4.880;2023-01-16T09:29:28;2.97;;;1.00;;
17091;SDS011;8661;45.700;4.880;2023-01-16T09:31:55;5.27;;;1.03;;
17091;SDS011;8661;45.700;4.880;2023-01-16T09:34:22;0.83;;;0.83;;
17091;SDS011;8661;45.700;4.880;2023-01-16T09:36:50;2.47;;;1.13;;
17091;SDS011;8661;45.700;4.880;2023-01-16T09:39:17;2.03;;;1.00;;
17091;SDS011;8661;45.700;4.880;2023-01-16T09:41:49;2.37;;;1.00;;
17091;SDS011;8661;45.700;4.880;2023-01-16T09:44:41;3.30;;;1.33;;
17091;SDS011;8661;45.700;4.880;2023-01-16T09:47:11;4.00;;;1.13;;
17091;SDS011;8661;45.700;4.880;2023-01-16T09:49:42;4.23;;;1.00;;
17091;SDS011;8661;45.700;4.880;2023-01-16T09:52:15;3.97;;;0.97;;
17091;SDS011;8661;45.700;4.880;2023-01-16T09:55:03;4.07;;;1.03;;
17091;SDS011;8661;45.700;4.880;2023-01-16T09:57:55;3.33;;;1.23;;
17091;SDS011;8661;45.700;4.880;2023-01-16T10:00:40;1.87;;;0.90;;
17091;SDS011;8661;45.700;4.880;2023-01-16T10:03:08;1.07;;;1.00;;
17091;SDS011;8661;45.700;4.880;2023-01-16T10:05:37;2.27;;;0.90;;
17091;SDS011;8661;45.700;4.880;2023-01-16T10:08:12;1.90;;;1.10;;
17091;SDS011;8661;45.700;4.880;2023-01-16T10:10:46;1.90;;;1.00;;
17091;SDS011;8661;45.700;4.880;2023-01-16T10:13:23;3.00;;;1.03;;
17091;SDS011;8661;45.700;4.880;2023-01-16T10:16:05;2.47;;;1.17;;
17091;SDS011;8661;45.700;4.880;2023-01-16T10:18:40;4.77;;;1.07;;
17091;SDS011;8661;45.700;4.880;2023-01-16T10:21:27;0.90;;;0.77;;
17091;SDS011;8661;45.700;4.880;2023-01-16T10:24:10;3.80;;;1.53;;
17091;SDS011;8661;45.700;4.880;2023-01-16T10:26:47;2.53;;;1.00;;
17091;SDS011;8661;45.700;4.880;2023-01-16T10:29:25;2.10;;;1.30;;
17091;SDS011;8661;45.700;4.880;2023-01-16T10:31:57;1.87;;;1.23;;
17091;SDS011;8661;45.700;4.880;2023-01-16T10:34:28;2.27;;;1.27;;
17091;SDS011;8661;45.700;4.880;2023-01-16T10:36:58;4.73;;;1.43;;
17091;SDS011;8661;45.700;4.880;2023-01-16T10:39:29;1.97;;;0.80;;
17091;SDS011;8661;45.700;4.880;2023-01-16T10:41:58;1.43;;;1.10;;
17091;SDS011;8661;45.700;4.880;2023-01-16T10:44:54;3.70;;;1.23;;
17091;SDS011;8661;45.700;4.880;2023-01-16T10:47:42;5.60;;;1.30;;
17091;SDS011;8661;45.700;4.880;2023-01-16T10:50:23;3.67;;;1.00;;
17091;SDS011;8661;45.700;4.880;2023-01-16T10:52:51;5.17;;;1.30;;
17091;SDS011;8661;45.700;4.880;2023-01-16T10:55:20;3.90;;;1.23;;
17091;SDS011;8661;45.700;4.880;2023-01-16T10:57:48;2.87;;;1.40;;
17091;SDS011;8661;45.700;4.880;2023-01-16T11:00:20;2.20;;;0.90;;
17091;SDS011;8661;45.700;4.880;2023-01-16T11:02:53;7.17;;;1.30;;
17091;SDS011;8661;45.700;4.880;2023-01-16T11:05:25;4.40;;;1.40;;
17091;SDS011;8661;45.700;4.880;2023-01-16T11:07:54;2.57;;;1.10;;
17091;SDS011;8661;45.700;4.880;2023-01-16T11:10:22;3.33;;;1.47;;
17091;SDS011;8661;45.700;4.880;2023-01-16T11:12:49;1.70;;;1.00;;
17091;SDS011;8661;45.700;4.880;2023-01-16T11:15:38;2.80;;;1.27;;
17091;SDS011;8661;45.700;4.880;2023-01-16T11:18:26;1.30;;;1.00;;
17091;SDS011;8661;45.700;4.880;2023-01-16T11:20:55;6.07;;;1.40;;
17091;SDS011;8661;45.700;4.880;2023-01-16T11:23:24;4.10;;;1.20;;
17091;SDS011;8661;45.700;4.880;2023-01-16T11:25:53;4.07;;;1.03;;
17091;SDS011;8661;45.700;4.880;2023-01-16T11:28:23;2.80;;;1.23;;
17091;SDS011;8661;45.700;4.880;2023-01-16T11:30:54;1.63;;;1.17;;
17091;SDS011;8661;45.700;4.880;2023-01-16T11:33:23;4.23;;;1.50;;
17091;SDS011;8661;45.700;4.880;2023-01-16T11:35:54;3.90;;;1.10;;
17091;SDS011;8661;45.700;4.880;2023-01-16T11:38:23;4.23;;;1.30;;
17091;SDS011;8661;45.700;4.880;2023-01-16T11:40:51;2.13;;;1.10;;
17091;SDS011;8661;45.700;4.880;2023-01-16T11:43:22;2.50;;;1.00;;
17091;SDS011;8661;45.700;4.880;2023-01-16T11:46:21;1.50;;;1.07;;
17091;SDS011;8661;45.700;4.880;2023-01-16T11:48:58;3.17;;;1.40;;
17091;SDS011;8661;45.700;4.880;2023-01-16T11:51:27;5.57;;;1.07;;
17091;SDS011;8661;45.700;4.880;2023-01-16T11:53:55;2.53;;;1.10;;
17091;SDS011;8661;45.700;4.880;2023-01-16T11:56:31;2.20;;;1.07;;
17091;SDS011;8661;45.700;4.880;2023-01-16T11:59:22;1.83;;;1.07;;
17091;SDS011;8661;45.700;4.880;2023-01-16T12:02:24;3.17;;;1.97;;
17091;SDS011;8661;45.700;4.880;2023-01-16T12:05:08;2.17;;;1.03;;
17091;SDS011;8661;45.700;4.880;2023-01-16T12:08:02;4.50;;;1.43;;
17091;SDS011;8661;45.700;4.880;2023-01-16T12:10:46;1.57;;;0.90;;
17091;SDS011;8661;45.700;4.880;2023-01-16T12:13:20;3.43;;;1.47;;
17091;SDS011;8661;45.700;4.880;2023-01-16T12:16:15;4.47;;;1.10;;
17091;SDS011;8661;45.700;4.880;2023-01-16T12:18:54;1.53;;;0.87;;
17091;SDS011;8661;45.700;4.880;2023-01-16T12:21:34;3.60;;;0.80;;
17091;SDS011;8661;45.700;4.880;2023-01-16T12:24:12;1.63;;;0.53;;
17091;SDS011;8661;45.700;4.880;2023-01-16T12:26:53;2.27;;;0.90;;
17091;SDS011;8661;45.700;4.880;2023-01-16T12:29:35;3.80;;;0.70;;
17091;SDS011;8661;45.700;4.880;2023-01-16T12:32:16;2.03;;;0.73;;
17091;SDS011;8661;45.700;4.880;2023-01-16T12:35:01;1.07;;;0.70;;
17091;SDS011;8661;45.700;4.880;2023-01-16T12:37:55;2.23;;;0.80;;
17091;SDS011;8661;45.700;4.880;2023-01-16T12:40:33;0.97;;;0.60;;
17091;SDS011;8661;45.700;4.880;2023-01-16T12:43:21;1.77;;;0.60;;
17091;SDS011;8661;45.700;4.880;2023-01-16T12:45:57;2.37;;;1.03;;
17091;SDS011;8661;45.700;4.880;2023-01-16T12:48:34;1.13;;;0.80;;
17091;SDS011;8661;45.700;4.880;2023-01-16T12:51:22;1.20;;;0.70;;
17091;SDS011;8661;45.700;4.880;2023-01-16T12:54:12;1.60;;;0.80;;
17091;SDS011;8661;45.700;4.880;2023-01-16T12:57:04;1.93;;;0.70;;
17091;SDS011;8661;45.700;4.880;2023-01-16T12:59:43;2.80;;;0.90;;
17091;SDS011;8661;45.700;4.880;2023-01-16T13:02:17;1.80;;;0.70;;
17091;SDS011;8661;45.700;4.880;2023-01-16T13:04:51;0.83;;;0.70;;
17091;SDS011;8661;45.700;4.880;2023-01-16T13:07:25;0.90;;;0.60;;
17091;SDS011;8661;45.700;4.880;2023-01-16T13:09:59;0.90;;;0.60;;
17091;SDS011;8661;45.700;4.880;2023-01-16T13:12:54;1.43;;;0.70;;
17091;SDS011;8661;45.700;4.880;2023-01-16T13:15:41;1.73;;;0.80;;
17091;SDS011;8661;45.700;4.880;2023-01-16T13:18:14;1.13;;;0.77;;
17091;SDS011;8661;45.700;4.880;2023-01-16T13:20:45;1.33;;;0.60;;
17091;SDS011;8661;45.700;4.880;2023-01-16T13:23:19;0.70;;;0.50;;
17091;SDS011;8661;45.700;4.880;2023-01-16T13:25:49;1.20;;;0.70;;
17091;SDS011;8661;45.700;4.880;2023-01-16T13:28:24;2.47;;;0.70;;
17091;SDS011;8661;45.700;4.880;2023-01-16T13:30:57;2.50;;;0.90;;
17091;SDS011;8661;45.700;4.880;2023-01-16T13:33:28;1.70;;;0.80;;
17091;SDS011;8661;45.700;4.880;2023-01-16T13:35:59;0.67;;;0.50;;
17091;SDS011;8661;45.700;4.880;2023-01-16T13:38:43;2.60;;;1.30;;
17091;SDS011;8661;45.700;4.880;2023-01-16T13:41:25;2.33;;;0.93;;
17091;SDS011;8661;45.700;4.880;2023-01-16T13:43:56;0.90;;;0.70;;
17091;SDS011;8661;45.700;4.880;2023-01-16T13:46:44;2.73;;;1.20;;
17091;SDS011;8661;45.700;4.880;2023-01-16T13:49:15;2.10;;;1.13;;
17091;SDS011;8661;45.700;4.880;2023-01-16T13:51:46;2.20;;;0.50;;
17091;SDS011;8661;45.700;4.880;2023-01-16T13:54:17;1.40;;;0.70;;
17091;SDS011;8661;45.700;4.880;2023-01-16T13:56:55;0.47;;;0.47;;
17091;SDS011;8661;45.700;4.880;2023-01-16T13:59:33;0.70;;;0.57;;
17091;SDS011;8661;45.700;4.880;2023-01-16T14:02:27;0.70;;;0.60;;
17091;SDS011;8661;45.700;4.880;2023-01-16T14:05:16;1.80;;;0.80;;
17091;SDS011;8661;45.700;4.880;2023-01-16T14:08:19;0.50;;;0.50;;
17091;SDS011;8661;45.700;4.880;2023-01-16T14:11:27;0.50;;;0.50;;
17091;SDS011;8661;45.700;4.880;2023-01-16T14:14:19;0.80;;;0.50;;
17091;SDS011;8661;45.700;4.880;2023-01-16T14:17:09;3.07;;;0.63;;
17091;SDS011;8661;45.700;4.880;2023-01-16T14:19:36;1.03;;;0.67;;
17091;SDS011;8661;45.700;4.880;2023-01-16T14:22:11;1.07;;;0.67;;
17091;SDS011;8661;45.700;4.880;2023-01-16T14:25:01;1.87;;;0.97;;
17091;SDS011;8661;45.700;4.880;2023-01-16T14:27:37;0.87;;;0.60;;
17091;SDS011;8661;45.700;4.880;2023-01-16T14:30:07;3.37;;;1.80;;
17091;SDS011;8661;45.700;4.880;2023-01-16T14:32:44;1.43;;;0.70;;
17091;SDS011;8661;45.700;4.880;2023-01-16T14:35:14;2.13;;;0.90;;
17091;SDS011;8661;45.700;4.880;2023-01-16T14:37:44;1.40;;;0.63;;
17091;SDS011;8661;45.700;4.880;2023-01-16T14:40:24;3.60;;;0.63;;
17091;SDS011;8661;45.700;4.880;2023-01-16T14:43:15;0.80;;;0.70;;
17091;SDS011;8661;45.700;4.880;2023-01-16T14:46:28;1.00;;;0.70;;
17091;SDS011;8661;45.700;4.880;2023-01-16T14:52:34;0.63;;;0.60;;
17091;SDS011;8661;45.700;4.880;2023-01-16T14:55:32;1.10;;;0.70;;
17091;SDS011;8661;45.700;4.880;2023-01-16T14:58:07;1.70;;;1.00;;
17091;SDS011;8661;45.700;4.880;2023-01-16T15:00:38;0.97;;;0.80;;
17091;SDS011;8661;45.700;4.880;2023-01-16T15:03:07;3.00;;;1.00;;
17091;SDS011;8661;45.700;4.880;2023-01-16T15:05:39;2.20;;;0.80;;
17091;SDS011;8661;45.700;4.880;2023-01-16T15:08:17;0.73;;;0.60;;
17091;SDS011;8661;45.700;4.880;2023-01-16T15:10:49;2.60;;;0.70;;
17091;SDS011;8661;45.700;4.880;2023-01-16T15:13:20;2.07;;;0.93;;
17091;SDS011;8661;45.700;4.880;2023-01-16T15:15:50;3.17;;;1.60;;
17091;SDS011;8661;45.700;4.880;2023-01-16T15:18:20;1.97;;;1.00;;
17091;SDS011;8661;45.700;4.880;2023-01-16T15:21:09;2.47;;;1.17;;
17091;SDS011;8661;45.700;4.880;2023-01-16T15:24:01;3.03;;;1.60;;
17091;SDS011;8661;45.700;4.880;2023-01-16T15:26:32;3.57;;;1.23;;
17091;SDS011;8661;45.700;4.880;2023-01-16T15:32:12;1.40;;;0.80;;
17091;SDS011;8661;45.700;4.880;2023-01-16T15:34:43;3.47;;;0.93;;
17091;SDS011;8661;45.700;4.880;2023-01-16T15:37:18;0.97;;;0.67;;
17091;SDS011;8661;45.700;4.880;2023-01-16T15:39:47;1.20;;;0.80;;
17091;SDS011;8661;45.700;4.880;2023-01-16T15:42:16;1.43;;;0.70;;
17091;SDS011;8661;45.700;4.880;2023-01-16T15:45:08;4.07;;;2.10;;
17091;SDS011;8661;45.700;4.880;2023-01-16T15:48:03;1.53;;;0.80;;
17091;SDS011;8661;45.700;4.880;2023-01-16T15:50:52;1.83;;;1.07;;